Time;durP1;ratioP1;P1;durP2;ratioP2;P2;SDS_P1;SDS_P2;PMS_P1;PMS_P2;Temp;Humidity;BMP_temperature;BMP_pressure;BME280_temperature;BME280_humidity;BME280_pressure;Samples;Min_cycle;Max_cycle;Signal;HPM_P1;HPM_P2
2022/04/09 00:01:13;;;;;;;4.75;1.27;;;20.20;55.30;;;;;;5005622;28;20497;-72
2022/04/09 00:03:39;;;;;;;6.13;1.20;;;20.20;55.30;;;;;;5009211;28;20807;-73
2022/04/09 00:06:06;;;;;;;3.38;1.20;;;20.20;55.40;;;;;;5008751;28;20037;-72
2022/04/09 00:08:33;;;;;;;5.75;1.42;;;20.20;55.70;;;;;;5007929;28;20048;-74
2022/04/09 00:10:59;;;;;;;4.57;1.27;;;20.10;55.60;;;;;;5008399;28;20041;-72
2022/04/09 00:13:26;;;;;;;3.25;1.02;;;20.10;55.70;;;;;;5006143;28;20037;-72
2022/04/09 00:15:52;;;;;;;6.57;2.22;;;20.10;55.70;;;;;;5007045;28;20067;-74
2022/04/09 00:18:19;;;;;;;4.28;0.80;;;20.10;55.80;;;;;;5010695;28;20018;-72
2022/04/09 00:20:45;;;;;;;4.97;1.17;;;20.10;56.40;;;;;;5005589;28;20030;-73
2022/04/09 00:23:13;;;;;;;3.08;0.63;;;20.10;55.80;;;;;;5005725;28;20488;-72
2022/04/09 00:25:39;;;;;;;5.55;0.80;;;20.10;55.90;;;;;;5004209;28;20026;-73
2022/04/09 00:28:06;;;;;;;2.72;0.82;;;20.10;56.10;;;;;;5008751;28;20036;-73
2022/04/09 00:30:32;;;;;;;7.05;1.85;;;20.10;56.00;;;;;;5007227;28;20026;-72
2022/04/09 00:32:59;;;;;;;6.13;1.10;;;20.10;56.00;;;;;;5005983;28;20029;-71
2022/04/09 00:35:25;;;;;;;3.20;1.02;;;20.10;56.00;;;;;;5005436;28;20059;-72
2022/04/09 00:37:52;;;;;;;4.78;0.80;;;20.00;56.60;;;;;;5007752;28;20530;-72
2022/04/09 00:40:19;;;;;;;7.78;1.08;;;20.00;56.10;;;;;;5006875;28;20018;-73
2022/04/09 00:42:45;;;;;;;2.47;0.80;;;20.00;56.20;;;;;;5006672;28;20029;-74
2022/04/09 00:45:13;;;;;;;6.07;1.23;;;20.00;56.40;;;;;;5006233;28;20020;-71
2022/04/09 00:47:39;;;;;;;5.90;1.40;;;20.00;56.50;;;;;;5008466;28;20021;-72
2022/04/09 00:50:08;;;;;;;5.05;1.23;;;19.90;56.60;;;;;;5008842;28;20076;-74
2022/04/09 00:52:38;;;;;;;2.88;1.02;;;20.00;56.80;;;;;;5007088;28;20041;-72
2022/04/09 00:55:06;;;;;;;3.97;1.10;;;20.00;57.10;;;;;;5007459;28;20125;-74
2022/04/09 00:57:40;;;;;;;7.97;1.13;;;19.90;57.00;;;;;;5004356;28;20104;-76
2022/04/09 01:00:09;;;;;;;19.70;2.22;;;19.90;57.10;;;;;;5005330;28;20054;-72
2022/04/09 01:02:40;;;;;;;10.63;1.30;;;19.90;57.50;;;;;;5007626;28;20122;-74
2022/04/09 01:05:08;;;;;;;11.85;1.10;;;19.90;58.10;;;;;;5007866;28;20046;-74
2022/04/09 01:07:35;;;;;;;4.38;1.00;;;19.90;58.00;;;;;;5005483;28;20095;-74
2022/04/09 01:10:03;;;;;;;10.55;2.03;;;19.90;58.00;;;;;;5007178;28;20026;-73
2022/04/09 01:12:29;;;;;;;8.55;1.33;;;19.90;58.20;;;;;;5005520;28;20072;-73
2022/04/09 01:14:56;;;;;;;2.80;1.17;;;19.90;58.20;;;;;;5005227;28;20009;-77
2022/04/09 01:17:23;;;;;;;3.90;1.10;;;19.90;58.10;;;;;;5003986;28;20028;-71
2022/04/09 01:19:50;;;;;;;4.82;1.98;;;19.90;57.90;;;;;;5007780;28;20030;-75
2022/04/09 01:22:16;;;;;;;12.45;2.15;;;19.90;57.70;;;;;;5006628;28;20408;-73
2022/04/09 01:24:43;;;;;;;4.80;1.23;;;19.80;57.60;;;;;;5008520;28;20026;-74
2022/04/09 01:27:09;;;;;;;3.85;1.15;;;19.80;57.80;;;;;;5007775;28;20033;-74
2022/04/09 01:29:36;;;;;;;7.95;2.30;;;19.80;57.90;;;;;;5003649;28;20048;-73
2022/04/09 01:32:03;;;;;;;4.65;1.65;;;19.80;57.80;;;;;;5007379;28;20036;-72
2022/04/09 01:34:30;;;;;;;4.80;1.23;;;19.80;58.50;;;;;;5004730;28;20686;-74
2022/04/09 01:36:56;;;;;;;2.47;1.50;;;19.70;57.80;;;;;;5003593;28;20025;-73
2022/04/09 01:39:23;;;;;;;4.88;1.40;;;19.70;57.90;;;;;;5006499;28;20029;-72
2022/04/09 01:41:49;;;;;;;6.95;2.22;;;19.70;58.00;;;;;;5005762;28;20493;-73
2022/04/09 01:44:16;;;;;;;5.10;1.63;;;19.70;58.00;;;;;;5007333;28;20014;-78
2022/04/09 01:46:44;;;;;;;3.45;1.35;;;19.70;58.10;;;;;;5006563;28;20025;-73
2022/04/09 01:49:12;;;;;;;10.00;1.58;;;19.70;58.30;;;;;;5009036;28;20377;-73
2022/04/09 01:51:39;;;;;;;5.38;1.40;;;19.60;58.40;;;;;;5002919;28;20038;-72
2022/04/09 01:54:05;;;;;;;3.70;1.30;;;19.60;58.40;;;;;;5006607;28;20069;-72
2022/04/09 01:56:33;;;;;;;5.45;1.52;;;19.60;58.40;;;;;;5005903;28;20129;-72
2022/04/09 01:58:59;;;;;;;6.75;2.28;;;19.60;58.50;;;;;;5007049;28;20798;-73
2022/04/09 02:01:25;;;;;;;5.68;1.60;;;19.60;58.50;;;;;;5005925;28;20044;-72
2022/04/09 02:03:52;;;;;;;5.90;2.00;;;19.60;58.50;;;;;;5006629;28;20032;-74
2022/04/09 02:06:18;;;;;;;4.18;1.20;;;19.60;58.70;;;;;;5006974;28;20029;-76
2022/04/09 02:08:45;;;;;;;4.35;1.02;;;19.60;58.80;;;;;;5003919;28;20029;-77
2022/04/09 02:11:11;;;;;;;5.20;1.60;;;19.60;58.80;;;;;;5008065;28;20128;-76
2022/04/09 02:13:38;;;;;;;5.30;1.90;;;19.60;59.00;;;;;;5004163;28;20064;-75
2022/04/09 02:16:04;;;;;;;7.60;1.67;;;19.60;59.00;;;;;;5005420;28;20084;-75
2022/04/09 02:18:31;;;;;;;24.52;1.90;;;19.50;58.90;;;;;;5006651;28;20060;-72
2022/04/09 02:20:57;;;;;;;22.45;2.40;;;19.50;59.20;;;;;;5005956;28;20025;-72
2022/04/09 02:23:24;;;;;;;8.27;1.70;;;19.50;59.80;;;;;;5007716;28;20126;-71
2022/04/09 02:25:50;;;;;;;10.93;2.30;;;19.50;59.40;;;;;;5005184;28;20039;-72
2022/04/09 02:28:17;;;;;;;20.27;2.65;;;19.50;58.80;;;;;;5011086;28;20084;-73
2022/04/09 02:30:43;;;;;;;44.53;16.50;;;19.50;58.60;;;;;;5007961;28;20085;-76
2022/04/09 02:33:10;;;;;;;34.67;14.00;;;19.50;59.00;;;;;;5011286;28;20029;-73
2022/04/09 02:35:36;;;;;;;13.00;6.47;;;19.40;59.20;;;;;;5008779;28;20140;-74
2022/04/09 02:38:04;;;;;;;7.25;2.88;;;19.40;59.10;;;;;;5012621;28;20129;-75
2022/04/09 02:40:31;;;;;;;7.80;2.85;;;19.40;59.00;;;;;;5008379;28;20038;-76
2022/04/09 02:42:57;;;;;;;8.05;2.22;;;19.40;59.00;;;;;;5008619;28;20026;-76
2022/04/09 02:45:24;;;;;;;2.38;1.17;;;19.40;59.00;;;;;;5012259;28;20013;-77
2022/04/09 02:47:50;;;;;;;4.32;1.70;;;19.30;58.90;;;;;;5009846;28;20025;-77
2022/04/09 02:50:19;;;;;;;5.45;1.40;;;19.30;58.90;;;;;;5010267;28;20018;-78
2022/04/09 02:52:46;;;;;;;3.20;1.23;;;19.30;59.00;;;;;;5009515;28;20056;-73
2022/04/09 02:55:12;;;;;;;4.80;1.20;;;19.30;59.00;;;;;;5011387;28;20042;-71
2022/04/09 02:57:40;;;;;;;16.35;2.78;;;19.30;59.00;;;;;;5010179;28;20104;-74
2022/04/09 03:00:12;;;;;;;7.15;1.58;;;19.30;59.10;;;;;;5010728;28;20022;-75
2022/04/09 03:02:40;;;;;;;11.30;2.65;;;19.30;59.30;;;;;;5006813;28;20021;-75
2022/04/09 03:05:13;;;;;;;9.90;1.70;;;19.20;59.60;;;;;;5000786;28;20053;-79
2022/04/09 03:07:40;;;;;;;4.93;1.42;;;19.20;59.30;;;;;;5004550;28;20481;-76
2022/04/09 03:10:07;;;;;;;3.95;1.23;;;19.20;59.80;;;;;;5002700;28;20014;-76
2022/04/09 03:12:33;;;;;;;9.38;1.38;;;19.20;59.10;;;;;;5004181;28;20080;-75
2022/04/09 03:15:00;;;;;;;12.00;2.25;;;19.20;59.20;;;;;;5004170;28;20445;-74
2022/04/09 03:17:26;;;;;;;10.63;1.63;;;19.10;59.20;;;;;;5007054;28;20331;-72
2022/04/09 03:19:53;;;;;;;8.95;1.88;;;19.10;59.30;;;;;;5005917;28;20021;-73
2022/04/09 03:22:21;;;;;;;17.63;1.88;;;19.10;60.20;;;;;;5005264;28;20038;-75
2022/04/09 03:24:48;;;;;;;9.02;2.60;;;19.10;60.30;;;;;;5006733;28;20025;-72
2022/04/09 03:27:15;;;;;;;10.60;1.45;;;19.10;60.10;;;;;;5006940;28;20050;-73
2022/04/09 03:29:42;;;;;;;26.70;12.73;;;19.10;59.90;;;;;;5007008;28;20045;-77
2022/04/09 03:32:09;;;;;;;29.98;15.38;;;19.10;60.20;;;;;;5003416;28;20044;-72
2022/04/09 03:34:36;;;;;;;19.73;9.93;;;19.10;60.70;;;;;;5006369;28;20029;-74
2022/04/09 03:37:03;;;;;;;15.75;5.78;;;19.10;60.40;;;;;;5004637;28;20029;-77
2022/04/09 03:39:31;;;;;;;12.60;3.40;;;19.00;60.10;;;;;;5004424;28;20157;-72
2022/04/09 03:41:57;;;;;;;5.15;1.90;;;19.00;59.90;;;;;;5003674;28;20049;-78
2022/04/09 03:44:25;;;;;;;5.43;1.83;;;19.00;59.90;;;;;;5002213;28;20028;-76
2022/04/09 03:47:05;;;;;;;5.28;2.15;;;19.00;59.80;;;;;;5004313;28;20037;-72
2022/04/09 03:49:33;;;;;;;2.38;1.23;;;19.00;59.80;;;;;;5004022;28;20140;-71
2022/04/09 03:52:00;;;;;;;3.88;1.85;;;19.00;59.70;;;;;;5006155;28;20038;-73
2022/04/09 03:54:26;;;;;;;5.18;1.42;;;18.90;59.70;;;;;;5004673;28;20033;-75
2022/04/09 03:56:54;;;;;;;5.90;1.50;;;18.90;59.70;;;;;;5003497;28;20045;-71
2022/04/09 03:59:20;;;;;;;16.88;2.72;;;18.90;59.80;;;;;;5004844;28;20617;-72
2022/04/09 04:01:47;;;;;;;5.07;1.83;;;18.80;59.70;;;;;;5003613;28;20018;-72
2022/04/09 04:04:14;;;;;;;5.60;1.63;;;18.80;60.10;;;;;;5005546;28;20037;-71
2022/04/09 04:06:44;;;;;;;27.85;2.85;;;18.90;60.30;;;;;;5004731;28;20033;-71
2022/04/09 04:09:12;;;;;;;24.95;2.83;;;18.90;60.50;;;;;;5003053;28;20560;-72
2022/04/09 04:11:39;;;;;;;15.30;2.05;;;18.80;60.70;;;;;;5005316;28;20037;-71
2022/04/09 04:14:05;;;;;;;9.90;1.50;;;18.90;60.60;;;;;;5004673;28;20018;-74
2022/04/09 04:16:32;;;;;;;18.80;3.08;;;18.80;60.50;;;;;;5017179;28;20112;-74
2022/04/09 04:18:59;;;;;;;22.02;2.83;;;18.80;60.40;;;;;;5006436;28;20437;-78
2022/04/09 04:21:29;;;;;;;20.42;11.60;;;18.70;60.30;;;;;;5004720;28;20029;-78
2022/04/09 04:24:11;;;;;;;19.05;12.13;;;18.80;60.40;;;;;;5008164;28;20029;-75
2022/04/09 04:26:38;;;;;;;10.82;2.78;;;18.80;60.30;;;;;;5003976;28;20049;-72
2022/04/09 04:29:16;;;;;;;6.70;3.08;;;18.80;60.20;;;;;;5004713;28;20053;-76
2022/04/09 04:31:44;;;;;;;11.02;2.20;;;18.60;60.60;;;;;;5005463;28;20136;-72
2022/04/09 04:34:10;;;;;;;7.35;1.50;;;18.60;61.50;;;;;;5004512;28;20026;-78
2022/04/09 04:36:37;;;;;;;7.65;1.80;;;18.60;61.30;;;;;;5001546;28;20029;-76
2022/04/09 04:39:03;;;;;;;6.10;1.35;;;18.50;61.00;;;;;;5000871;28;20026;-74
2022/04/09 04:41:30;;;;;;;4.07;1.20;;;18.50;60.70;;;;;;4999051;28;21498;-82
2022/04/09 04:43:56;;;;;;;3.88;1.80;;;18.60;60.80;;;;;;5006679;28;20093;-81
2022/04/09 04:46:23;;;;;;;2.47;1.17;;;18.60;60.70;;;;;;5002329;28;20046;-72
2022/04/09 04:48:49;;;;;;;7.55;2.30;;;18.60;60.70;;;;;;5000973;28;20032;-77
2022/04/09 04:51:16;;;;;;;6.82;2.33;;;18.50;60.60;;;;;;5001142;28;20034;-79
2022/04/09 04:53:42;;;;;;;12.65;1.88;;;18.50;60.60;;;;;;5004062;28;20030;-73
2022/04/09 04:56:09;;;;;;;10.40;2.00;;;18.60;60.80;;;;;;5004161;28;20468;-75
2022/04/09 04:58:35;;;;;;;25.67;4.45;;;18.50;61.10;;;;;;5004533;28;20018;-72
2022/04/09 05:01:02;;;;;;;21.77;14.63;;;18.50;61.40;;;;;;5004969;28;20087;-76
2022/04/09 05:03:29;;;;;;;21.13;12.75;;;18.50;61.50;;;;;;5000674;28;20500;-72
2022/04/09 05:05:56;;;;;;;14.35;6.78;;;18.50;61.60;;;;;;5001898;28;20117;-73
2022/04/09 05:08:23;;;;;;;7.80;4.05;;;18.50;61.50;;;;;;5001834;28;20014;-73
2022/04/09 05:10:49;;;;;;;10.25;2.92;;;18.50;61.80;;;;;;5000051;28;20030;-77
2022/04/09 05:13:16;;;;;;;8.60;2.17;;;18.50;61.70;;;;;;5005000;28;20757;-77
2022/04/09 05:15:42;;;;;;;11.25;2.60;;;18.50;61.70;;;;;;5000990;28;20025;-72
2022/04/09 05:18:09;;;;;;;5.50;2.30;;;18.50;61.70;;;;;;5002858;28;20014;-77
2022/04/09 05:20:35;;;;;;;10.68;2.03;;;18.50;62.10;;;;;;5000916;28;20077;-74
2022/04/09 05:23:03;;;;;;;5.07;1.70;;;18.50;62.30;;;;;;5003363;28;20029;-75
2022/04/09 05:25:31;;;;;;;6.32;1.55;;;18.50;62.30;;;;;;5003586;28;20022;-72
2022/04/09 05:28:08;;;;;;;9.23;3.03;;;18.50;62.40;;;;;;5001808;28;20018;-73
2022/04/09 05:30:35;;;;;;;6.88;1.50;;;18.50;62.50;;;;;;5005861;28;20092;-78
2022/04/09 05:33:03;;;;;;;8.40;1.90;;;18.50;62.50;;;;;;5002948;28;20064;-76
2022/04/09 05:35:30;;;;;;;4.50;1.85;;;18.50;63.00;;;;;;5004929;28;20026;-74
2022/04/09 05:37:56;;;;;;;17.23;8.50;;;18.50;62.50;;;;;;5003451;28;20014;-77
2022/04/09 05:40:23;;;;;;;20.98;14.10;;;18.50;62.70;;;;;;5006204;28;20083;-77
2022/04/09 05:42:49;;;;;;;19.13;7.57;;;18.50;62.60;;;;;;5007788;28;20037;-81
2022/04/09 05:45:16;;;;;;;8.43;4.40;;;18.50;62.50;;;;;;4999226;28;20006;-73
2022/04/09 05:47:43;;;;;;;8.07;2.47;;;18.50;62.70;;;;;;5000671;28;20482;-73
2022/04/09 05:50:10;;;;;;;4.97;1.98;;;18.50;62.70;;;;;;5002720;28;20049;-72
2022/04/09 05:52:37;;;;;;;16.55;2.45;;;18.50;62.70;;;;;;5005803;28;20085;-72
2022/04/09 05:55:05;;;;;;;7.25;1.90;;;18.50;62.90;;;;;;4999830;28;20073;-74
2022/04/09 05:57:33;;;;;;;8.40;1.55;;;18.50;62.80;;;;;;5004832;28;20023;-77
2022/04/09 06:00:00;;;;;;;13.23;1.80;;;18.50;62.80;;;;;;5003688;28;20033;-77
2022/04/09 06:02:27;;;;;;;8.20;1.92;;;18.50;63.00;;;;;;4999497;28;20022;-74
2022/04/09 06:04:53;;;;;;;7.43;1.33;;;18.50;62.90;;;;;;5004480;28;20037;-73
2022/04/09 06:07:20;;;;;;;17.08;2.35;;;18.50;63.00;;;;;;5006135;28;20026;-72
2022/04/09 06:09:49;;;;;;;5.50;1.52;;;18.60;63.00;;;;;;5005896;28;20025;-71
2022/04/09 06:12:15;;;;;;;10.73;1.95;;;18.60;63.10;;;;;;5004436;28;20035;-71
2022/04/09 06:14:42;;;;;;;22.48;3.55;;;18.60;63.10;;;;;;5005275;28;20060;-71
2022/04/09 06:17:08;;;;;;;31.83;3.83;;;18.60;63.10;;;;;;5005464;28;20332;-72
2022/04/09 06:19:35;;;;;;;10.32;1.95;;;18.60;63.10;;;;;;5003848;28;20017;-72
2022/04/09 06:22:01;;;;;;;7.07;2.20;;;18.60;62.80;;;;;;5002589;28;20030;-72
2022/04/09 06:24:28;;;;;;;6.60;1.45;;;18.60;62.50;;;;;;5007069;28;20040;-71
2022/04/09 06:26:54;;;;;;;4.15;1.55;;;18.60;62.40;;;;;;5004514;28;20427;-73
2022/04/09 06:29:21;;;;;;;6.05;1.40;;;18.60;62.40;;;;;;5001912;28;20560;-72
2022/04/09 06:31:47;;;;;;;6.30;1.50;;;18.60;62.50;;;;;;5007030;28;20049;-72
2022/04/09 06:34:17;;;;;;;44.15;3.63;;;18.70;62.50;;;;;;5004953;28;20049;-71
2022/04/09 06:36:44;;;;;;;26.85;12.75;;;18.70;62.60;;;;;;5003223;28;20483;-72
2022/04/09 06:39:11;;;;;;;15.57;9.45;;;18.70;62.80;;;;;;5004835;28;20021;-75
2022/04/09 06:41:38;;;;;;;25.42;5.50;;;18.70;62.80;;;;;;5006017;28;20029;-71
2022/04/09 06:44:05;;;;;;;7.45;3.60;;;18.70;63.10;;;;;;5003410;28;20049;-74
2022/04/09 06:46:32;;;;;;;16.58;4.05;;;18.70;63.20;;;;;;5004041;28;20113;-70
2022/04/09 06:48:59;;;;;;;7.85;1.88;;;18.80;63.00;;;;;;5003633;28;20029;-70
2022/04/09 06:51:25;;;;;;;8.60;1.83;;;18.80;62.90;;;;;;5003551;28;20037;-71
2022/04/09 06:53:52;;;;;;;7.97;1.45;;;18.80;62.70;;;;;;5005938;28;20018;-70
2022/04/09 06:56:18;;;;;;;5.95;1.40;;;18.80;62.50;;;;;;5003318;28;20088;-71
2022/04/09 06:58:45;;;;;;;7.90;1.85;;;18.90;62.50;;;;;;5005226;28;20053;-72
2022/04/09 07:01:11;;;;;;;1.90;1.00;;;18.90;62.40;;;;;;5003520;28;20026;-70
2022/04/09 07:03:38;;;;;;;16.27;2.00;;;18.90;62.50;;;;;;5005689;28;20077;-69
2022/04/09 07:06:04;;;;;;;19.05;2.03;;;19.00;62.90;;;;;;5005376;28;20018;-70
2022/04/09 07:08:31;;;;;;;9.93;1.95;;;19.00;62.60;;;;;;5002478;28;20026;-69
2022/04/09 07:10:57;;;;;;;17.23;1.73;;;19.10;62.20;;;;;;5003416;28;20026;-68
2022/04/09 07:13:24;;;;;;;3.38;2.17;;;19.10;61.50;;;;;;5007782;28;20101;-69
2022/04/09 07:15:50;;;;;;;7.47;3.67;;;19.10;61.20;;;;;;5009667;28;20018;-69
2022/04/09 07:18:16;;;;;;;11.25;3.90;;;19.10;61.00;;;;;;5006862;28;20161;-70
2022/04/09 07:20:44;;;;;;;8.07;3.00;;;19.20;60.70;;;;;;5006485;28;20350;-69
2022/04/09 07:23:11;;;;;;;5.03;3.00;;;19.20;60.40;;;;;;5008013;28;20469;-71
2022/04/09 07:25:37;;;;;;;8.63;2.70;;;19.20;60.00;;;;;;5009119;28;20029;-69
2022/04/09 07:28:04;;;;;;;6.22;1.98;;;19.30;60.00;;;;;;5005293;28;20026;-71
2022/04/09 07:30:30;;;;;;;8.38;2.10;;;19.30;60.00;;;;;;5006667;28;20045;-72
2022/04/09 07:32:57;;;;;;;9.43;2.40;;;19.40;60.10;;;;;;5024578;28;20046;-74
2022/04/09 07:35:24;;;;;;;3.15;1.27;;;19.40;59.80;;;;;;5005180;28;20034;-73
2022/04/09 07:37:54;;;;;;;6.72;1.60;;;19.40;59.60;;;;;;5008116;28;20026;-77
2022/04/09 07:40:22;;;;;;;3.72;1.38;;;19.50;59.50;;;;;;5008783;28;20018;-71
2022/04/09 07:42:48;;;;;;;4.20;1.60;;;19.50;59.30;;;;;;5005948;28;20041;-71
2022/04/09 07:45:16;;;;;;;2.53;0.88;;;19.60;59.00;;;;;;5007763;28;20023;-71
2022/04/09 07:48:22;;;;;;;3.28;1.80;;;19.60;58.90;;;;;;5007664;28;20109;-72
2022/04/09 07:50:48;;;;;;;4.40;2.28;;;19.60;58.80;;;;;;5006817;28;20524;-72
2022/04/09 07:53:15;;;;;;;9.20;1.48;;;19.70;58.80;;;;;;5009597;28;20034;-72
2022/04/09 07:55:59;;;;;;;166.73;21.10;;;19.70;58.70;;;;;;5007272;28;20034;-72
2022/04/09 07:59:05;;;;;;;20.38;4.10;;;19.70;58.50;;;;;;5008626;28;20026;-72
2022/04/09 08:01:48;;;;;;;60.63;6.60;;;19.80;57.80;;;;;;5004887;28;20117;-73
2022/04/09 08:04:54;;;;;;;17.27;3.42;;;19.90;57.20;;;;;;5004061;28;20614;-73
2022/04/09 08:07:39;;;;;;;3.78;1.13;;;20.00;57.00;;;;;;5007551;28;20428;-72
2022/04/09 08:10:06;;;;;;;15.93;2.28;;;20.10;57.20;;;;;;5007445;28;20026;-72
2022/04/09 08:12:32;;;;;;;6.40;1.98;;;20.20;57.10;;;;;;5006808;28;20480;-72
2022/04/09 08:14:59;;;;;;;15.82;3.95;;;20.20;57.70;;;;;;5008381;28;20656;-72
2022/04/09 08:17:26;;;;;;;8.00;2.60;;;20.20;58.00;;;;;;5006574;28;20026;-71
2022/04/09 08:19:55;;;;;;;7.65;2.03;;;20.20;57.90;;;;;;5007998;28;20082;-70
2022/04/09 08:22:22;;;;;;;11.07;3.22;;;20.20;57.60;;;;;;5006433;28;20026;-70
2022/04/09 08:24:49;;;;;;;11.18;1.92;;;20.30;57.40;;;;;;5008123;28;20088;-70
2022/04/09 08:27:15;;;;;;;8.68;2.00;;;20.30;57.30;;;;;;5007541;28;20021;-71
2022/04/09 08:29:42;;;;;;;8.32;2.90;;;20.30;57.20;;;;;;5002185;28;20022;-71
2022/04/09 08:32:09;;;;;;;5.13;1.58;;;20.40;57.30;;;;;;5006589;28;20038;-72
2022/04/09 08:34:37;;;;;;;5.15;1.73;;;20.40;57.10;;;;;;5005441;28;20036;-73
2022/04/09 08:37:06;;;;;;;7.10;1.58;;;20.40;56.80;;;;;;5003400;28;20030;-71
2022/04/09 08:39:34;;;;;;;1.95;1.40;;;20.50;56.70;;;;;;5006459;28;20053;-71
2022/04/09 08:42:02;;;;;;;2.63;1.65;;;20.50;56.30;;;;;;5006025;28;20014;-71
2022/04/09 08:44:31;;;;;;;4.10;1.50;;;20.50;56.20;;;;;;5008209;28;20022;-71
2022/04/09 08:46:58;;;;;;;4.07;1.45;;;20.60;56.00;;;;;;5005805;28;20025;-74
2022/04/09 08:49:25;;;;;;;3.28;1.30;;;20.60;55.40;;;;;;5009002;28;20065;-72
2022/04/09 08:51:52;;;;;;;4.28;1.98;;;20.60;55.10;;;;;;5005794;28;20038;-73
2022/04/09 08:54:19;;;;;;;21.63;3.58;;;20.70;55.00;;;;;;5005495;28;20033;-72
2022/04/09 08:56:45;;;;;;;7.53;1.42;;;20.80;55.00;;;;;;5007037;28;20053;-72
2022/04/09 08:59:12;;;;;;;5.55;2.45;;;20.80;54.40;;;;;;5007433;28;20409;-71
2022/04/09 09:01:38;;;;;;;5.10;1.75;;;20.80;54.10;;;;;;5008488;28;20014;-72
2022/04/09 09:04:05;;;;;;;16.10;2.10;;;20.90;54.20;;;;;;5001886;28;20022;-72
2022/04/09 09:06:35;;;;;;;2.42;1.85;;;20.90;54.00;;;;;;5008011;28;20080;-72
2022/04/09 09:09:08;;;;;;;3.95;1.48;;;20.90;53.50;;;;;;5004570;28;20030;-72
2022/04/09 09:11:48;;;;;;;6.40;1.58;;;21.00;52.90;;;;;;5006920;28;20433;-70
2022/04/09 09:14:30;;;;;;;7.30;4.90;;;21.10;52.70;;;;;;5008106;28;20049;-71
2022/04/09 09:16:58;;;;;;;10.07;4.72;;;21.10;52.00;;;;;;5006556;28;20022;-71
2022/04/09 09:19:48;;;;;;;8.20;3.67;;;21.20;51.40;;;;;;5001404;28;20034;-72
2022/04/09 09:22:16;;;;;;;7.05;2.33;;;21.30;51.30;;;;;;5006304;28;20496;-72
2022/04/09 09:24:42;;;;;;;4.18;2.00;;;21.30;50.90;;;;;;5005068;28;20025;-70
2022/04/09 09:27:09;;;;;;;8.35;1.90;;;21.30;49.80;;;;;;5001302;28;20040;-71
2022/04/09 09:29:36;;;;;;;6.20;2.55;;;21.40;49.40;;;;;;5006723;28;20025;-72
2022/04/09 09:32:07;;;;;;;3.38;1.88;;;21.40;49.00;;;;;;5004945;28;20119;-72
2022/04/09 09:34:34;;;;;;;4.20;1.60;;;21.50;49.00;;;;;;5004427;28;20014;-72
2022/04/09 09:37:00;;;;;;;2.67;1.33;;;21.60;48.20;;;;;;5004790;28;20108;-72
2022/04/09 09:39:33;;;;;;;7.93;1.63;;;21.60;47.50;;;;;;5003792;28;20129;-71
2022/04/09 09:42:04;;;;;;;9.57;2.05;;;21.70;47.70;;;;;;5005990;28;20101;-71
2022/04/09 09:44:32;;;;;;;14.95;3.17;;;21.70;47.50;;;;;;5004652;28;20075;-75
2022/04/09 09:47:17;;;;;;;10.27;5.40;;;21.80;47.20;;;;;;5001445;28;20966;-74
2022/04/09 09:49:56;;;;;;;11.02;5.97;;;21.90;47.20;;;;;;5005240;28;20029;-72
2022/04/09 09:52:32;;;;;;;8.93;3.47;;;22.00;46.40;;;;;;5002833;28;20030;-77
2022/04/09 09:55:10;;;;;;;5.47;2.42;;;22.00;45.30;;;;;;5006379;28;20120;-76
2022/04/09 09:57:42;;;;;;;3.15;2.10;;;22.10;44.40;;;;;;5008301;28;20092;-77
2022/04/09 10:00:14;;;;;;;4.38;1.73;;;22.20;43.80;;;;;;5002677;28;20010;-73
2022/04/09 10:02:43;;;;;;;14.57;7.47;;;22.30;43.60;;;;;;5019629;28;20026;-74
2022/04/09 10:05:10;;;;;;;24.10;19.25;;;22.40;44.40;;;;;;5002642;28;20105;-72
2022/04/09 10:07:36;;;;;;;6.93;4.53;;;22.40;43.90;;;;;;5007746;28;20044;-72
2022/04/09 10:10:05;;;;;;;9.40;5.25;;;22.50;43.50;;;;;;5002645;28;20430;-72
2022/04/09 10:12:42;;;;;;;5.40;2.60;;;22.60;43.20;;;;;;5004422;28;20046;-74
2022/04/09 10:15:09;;;;;;;6.18;2.25;;;22.60;42.00;;;;;;5006588;28;20093;-72
2022/04/09 10:17:37;;;;;;;7.13;1.60;;;22.70;41.80;;;;;;5006554;28;20026;-71
2022/04/09 10:20:04;;;;;;;4.43;1.50;;;22.80;42.30;;;;;;5006908;28;20381;-72
2022/04/09 10:22:53;;;;;;;2.95;0.90;;;22.90;41.60;;;;;;5006182;28;20033;-71
2022/04/09 10:25:20;;;;;;;4.50;1.05;;;23.00;41.10;;;;;;5007199;28;20124;-72
2022/04/09 10:27:53;;;;;;;2.80;1.00;;;23.00;40.00;;;;;;5007567;28;20061;-70
2022/04/09 10:30:21;;;;;;;2.17;0.98;;;23.10;40.00;;;;;;5003371;28;20025;-72
2022/04/09 10:32:49;;;;;;;1.75;0.80;;;23.20;40.20;;;;;;5008386;28;20039;-71
2022/04/09 10:35:30;;;;;;;2.05;0.73;;;23.30;40.00;;;;;;5004386;28;20022;-71
2022/04/09 10:38:14;;;;;;;1.60;1.17;;;23.40;39.20;;;;;;5007255;28;20026;-71
2022/04/09 10:40:44;;;;;;;1.75;0.90;;;23.40;39.20;;;;;;5007409;28;20029;-71
2022/04/09 10:43:37;;;;;;;2.08;1.40;;;23.50;38.80;;;;;;5006897;28;20144;-71
2022/04/09 10:46:07;;;;;;;1.83;1.10;;;23.60;39.00;;;;;;5003179;28;20049;-71
2022/04/09 10:48:38;;;;;;;5.38;1.30;;;23.70;38.90;;;;;;5008567;28;20380;-71
2022/04/09 10:51:08;;;;;;;3.88;1.55;;;23.70;38.80;;;;;;5009147;28;20067;-71
2022/04/09 10:53:43;;;;;;;1.70;1.13;;;23.80;38.70;;;;;;5010697;28;20021;-72
2022/04/09 10:56:27;;;;;;;1.85;1.20;;;23.80;38.50;;;;;;5005610;28;20088;-72
2022/04/09 10:59:10;;;;;;;1.73;1.17;;;23.90;38.30;;;;;;5010997;28;20048;-72
2022/04/09 11:01:51;;;;;;;1.75;0.98;;;24.00;38.60;;;;;;5010780;28;20030;-73
2022/04/09 11:04:36;;;;;;;3.15;1.92;;;24.10;38.60;;;;;;5007922;28;20028;-71
2022/04/09 11:07:09;;;;;;;2.50;0.70;;;24.20;38.80;;;;;;5007648;28;20026;-72
2022/04/09 11:09:54;;;;;;;1.55;1.00;;;24.20;38.20;;;;;;5008861;28;20246;-71
2022/04/09 11:12:30;;;;;;;1.98;1.00;;;24.30;37.80;;;;;;5008563;28;20519;-73
2022/04/09 11:15:07;;;;;;;5.38;1.23;;;24.40;37.30;;;;;;5007180;28;20029;-72
2022/04/09 11:17:38;;;;;;;1.70;0.95;;;24.40;36.90;;;;;;5007221;28;20103;-72
2022/04/09 11:20:06;;;;;;;1.83;0.63;;;24.50;37.00;;;;;;5008654;28;20025;-72
2022/04/09 11:22:34;;;;;;;1.33;1.10;;;24.60;36.10;;;;;;5008520;28;20156;-73
2022/04/09 11:25:01;;;;;;;3.67;1.00;;;24.60;35.80;;;;;;5010902;28;20595;-72
2022/04/09 11:27:29;;;;;;;2.13;0.85;;;24.60;35.90;;;;;;5008542;28;20138;-73
2022/04/09 11:29:56;;;;;;;2.13;0.85;;;24.70;35.00;;;;;;5011534;28;20025;-73
2022/04/09 11:32:23;;;;;;;1.02;0.70;;;24.90;34.70;;;;;;5009477;28;20038;-72
2022/04/09 11:35:00;;;;;;;0.98;0.70;;;24.90;34.90;;;;;;5007834;28;20643;-70
2022/04/09 11:37:32;;;;;;;2.08;0.68;;;25.00;34.70;;;;;;5009297;28;20065;-71
2022/04/09 11:40:05;;;;;;;3.33;0.60;;;25.10;34.70;;;;;;5009168;28;20044;-73
2022/04/09 11:42:44;;;;;;;1.00;0.60;;;25.10;34.80;;;;;;5010265;28;20037;-74
2022/04/09 11:45:28;;;;;;;0.85;0.40;;;25.20;33.80;;;;;;5008202;28;20053;-74
2022/04/09 11:47:59;;;;;;;0.73;0.50;;;25.20;33.60;;;;;;5008507;28;20050;-71
2022/04/09 11:50:32;;;;;;;0.20;0.20;;;25.30;33.40;;;;;;5010977;28;20109;-75
2022/04/09 11:53:12;;;;;;;3.50;0.40;;;25.30;32.90;;;;;;5006203;28;20067;-75
2022/04/09 11:55:40;;;;;;;5.63;0.85;;;25.50;33.30;;;;;;5008625;28;20049;-75
2022/04/09 11:58:08;;;;;;;3.45;0.75;;;25.50;33.50;;;;;;5006229;28;20049;-72
2022/04/09 12:00:42;;;;;;;4.15;0.70;;;25.60;33.20;;;;;;5009658;28;20112;-74
2022/04/09 12:03:09;;;;;;;2.40;0.50;;;25.70;34.10;;;;;;5007072;28;20036;-73
2022/04/09 12:05:39;;;;;;;2.78;1.08;;;25.80;33.40;;;;;;5008729;28;20505;-74
2022/04/09 12:08:45;;;;;;;1.83;0.35;;;25.90;33.30;;;;;;5009144;28;20026;-74
2022/04/09 12:11:31;;;;;;;;;;;25.90;33.20;;;;;;5006274;28;20029;-75
2022/04/09 12:14:37;;;;;;;2.65;1.20;;;25.90;33.20;;;;;;5008687;28;19909;-76
2022/04/09 12:17:15;;;;;;;0.57;0.40;;;26.00;32.90;;;;;;5008263;28;20026;-75
2022/04/09 12:20:19;;;;;;;1.58;0.20;;;26.10;32.20;;;;;;5008522;28;20029;-74
2022/04/09 12:23:25;;;;;;;1.30;0.40;;;26.10;32.20;;;;;;5005892;28;20022;-74
2022/04/09 12:26:11;;;;;;;;;;;26.20;32.50;;;;;;5006703;28;20021;-72
2022/04/09 12:29:07;;;;;;;3.42;0.90;;;26.20;32.70;;;;;;5006233;28;19919;-76
2022/04/09 12:32:12;;;;;;;3.15;0.95;;;26.30;33.90;;;;;;5006232;28;20406;-74
2022/04/09 12:35:18;;;;;;;3.92;0.73;;;26.30;34.90;;;;;;5006863;28;20057;-72
2022/04/09 12:38:05;;;;;;;2.17;0.95;;;26.30;35.20;;;;;;5008302;28;20026;-69
2022/04/09 12:41:11;;;;;;;2.42;1.08;;;26.40;35.60;;;;;;5005349;28;20025;-75
2022/04/09 12:43:42;;;;;;;2.80;1.00;;;26.40;35.40;;;;;;5002721;28;20477;-76
2022/04/09 12:46:15;;;;;;;4.43;1.38;;;26.40;35.60;;;;;;5008805;28;20048;-76
2022/04/09 12:48:41;;;;;;;2.72;1.17;;;26.40;35.90;;;;;;5008672;28;20030;-75
2022/04/09 12:51:09;;;;;;;2.45;1.13;;;26.40;35.80;;;;;;5007770;28;20022;-72
2022/04/09 12:53:36;;;;;;;1.45;0.80;;;26.40;35.80;;;;;;5008114;28;20043;-76
2022/04/09 12:56:07;;;;;;;5.65;0.98;;;26.50;35.30;;;;;;5007109;28;20080;-74
2022/04/09 12:58:34;;;;;;;1.45;0.90;;;26.50;35.40;;;;;;5007825;28;20026;-72
2022/04/09 13:01:01;;;;;;;6.25;1.38;;;26.50;35.50;;;;;;5007858;28;20048;-76